Time;durP1;ratioP1;P1;durP2;ratioP2;P2;SDS_P1;SDS_P2;PMS_P1;PMS_P2;Temp;Humidity;BMP_temperature;BMP_pressure;BME280_temperature;BME280_humidity;BME280_pressure;Samples;Min_cycle;Max_cycle;Signal;HPM_P1;HPM_P2
2022/12/12 00:00:09;;;;;;;8.00;7.20;;;17.10;52.30;;;;;;4985835;28;20208;-69
2022/12/12 00:02:40;;;;;;;7.60;6.80;;;17.10;52.20;;;;;;4994701;28;20648;-68
2022/12/12 00:05:08;;;;;;;7.60;6.65;;;17.10;52.30;;;;;;4995230;28;20184;-68
2022/12/12 00:07:34;;;;;;;7.82;7.03;;;17.10;52.30;;;;;;5011290;28;20185;-69
2022/12/12 00:10:00;;;;;;;7.35;6.65;;;17.10;52.20;;;;;;5011639;28;20199;-68
2022/12/12 00:12:26;;;;;;;8.65;6.72;;;17.10;52.20;;;;;;4995205;28;20208;-69
2022/12/12 00:14:52;;;;;;;7.72;6.93;;;17.10;52.20;;;;;;4994930;28;20191;-68
2022/12/12 00:17:18;;;;;;;7.22;6.53;;;17.10;52.30;;;;;;4995203;28;20665;-68
2022/12/12 00:19:43;;;;;;;7.40;6.60;;;17.10;52.20;;;;;;4994731;28;20219;-68
2022/12/12 00:22:09;;;;;;;7.18;6.43;;;17.10;52.20;;;;;;4995140;28;20220;-68
2022/12/12 00:24:35;;;;;;;7.30;6.60;;;17.10;52.30;;;;;;4994768;28;20312;-69
2022/12/12 00:27:01;;;;;;;7.05;6.35;;;17.10;52.20;;;;;;4995087;28;20185;-68
2022/12/12 00:29:26;;;;;;;8.43;7.00;;;17.10;52.30;;;;;;4995125;28;20185;-68
2022/12/12 00:31:52;;;;;;;7.22;6.53;;;17.10;52.20;;;;;;4994625;28;20220;-68
2022/12/12 00:34:18;;;;;;;7.10;6.40;;;17.10;52.20;;;;;;4994447;28;20706;-68
2022/12/12 00:36:44;;;;;;;7.43;6.65;;;17.00;52.00;;;;;;4994731;28;20165;-68
2022/12/12 00:39:10;;;;;;;7.68;6.97;;;17.10;52.20;;;;;;4993845;28;20224;-68
2022/12/12 00:41:36;;;;;;;7.03;6.32;;;17.10;52.20;;;;;;4994315;28;20212;-68
2022/12/12 00:44:03;;;;;;;6.53;5.88;;;17.10;52.80;;;;;;4974625;28;20196;-68
2022/12/12 00:46:29;;;;;;;7.20;6.50;;;17.00;52.20;;;;;;4976091;28;20185;-68
2022/12/12 00:48:57;;;;;;;7.57;6.88;;;17.00;52.10;;;;;;4976081;28;20185;-68
2022/12/12 00:51:25;;;;;;;6.80;6.10;;;17.10;52.10;;;;;;4974842;28;20229;-68
2022/12/12 00:53:52;;;;;;;7.05;6.35;;;17.00;52.10;;;;;;4974936;28;20229;-68
2022/12/12 00:56:20;;;;;;;6.13;5.63;;;17.00;52.10;;;;;;4974837;28;20216;-68
2022/12/12 00:58:47;;;;;;;6.10;5.50;;;17.10;52.20;;;;;;4995102;28;20225;-69
2022/12/12 01:01:18;;;;;;;6.53;5.90;;;17.10;52.10;;;;;;4994099;28;20272;-68
2022/12/12 01:03:45;;;;;;;6.22;5.63;;;17.00;52.00;;;;;;4988346;28;20189;-68
2022/12/12 01:06:11;;;;;;;6.05;5.45;;;17.00;52.00;;;;;;4975793;28;20185;-68
2022/12/12 01:08:38;;;;;;;6.68;6.00;;;17.00;52.00;;;;;;4974789;28;20193;-69
2022/12/12 01:11:05;;;;;;;6.65;5.95;;;17.00;52.00;;;;;;4975682;28;20536;-68
2022/12/12 01:13:31;;;;;;;6.45;5.78;;;17.00;52.00;;;;;;4974537;28;20554;-68
2022/12/12 01:15:58;;;;;;;6.13;5.53;;;17.00;52.00;;;;;;4958356;28;20190;-69
2022/12/12 01:18:24;;;;;;;7.18;6.47;;;17.00;52.00;;;;;;4974559;28;20193;-68
2022/12/12 01:20:51;;;;;;;6.30;5.65;;;17.00;51.80;;;;;;4990591;28;20300;-68
2022/12/12 01:23:16;;;;;;;6.13;5.53;;;17.00;51.70;;;;;;4990537;28;20213;-68
2022/12/12 01:25:42;;;;;;;6.85;6.15;;;17.00;51.80;;;;;;4990438;28;20191;-68
2022/12/12 01:28:08;;;;;;;6.00;5.50;;;17.00;51.90;;;;;;4990657;28;20201;-68
2022/12/12 01:30:34;;;;;;;6.20;5.60;;;17.00;51.90;;;;;;4988728;28;20185;-68
2022/12/12 01:33:00;;;;;;;6.45;5.85;;;17.00;51.70;;;;;;4985311;28;20228;-68
2022/12/12 01:35:26;;;;;;;6.82;6.13;;;17.00;51.80;;;;;;4994735;28;20235;-68
2022/12/12 01:37:53;;;;;;;6.57;5.72;;;17.00;51.80;;;;;;4993441;28;20192;-68
2022/12/12 01:40:24;;;;;;;6.45;5.80;;;17.00;51.80;;;;;;4993356;28;20299;-69
2022/12/12 01:42:51;;;;;;;6.53;5.93;;;17.00;51.80;;;;;;4993396;28;20658;-68
2022/12/12 01:46:01;;;;;;;5.95;5.32;;;17.00;51.70;;;;;;4993451;28;20572;-68
2022/12/12 01:48:44;;;;;;;5.80;5.20;;;17.00;51.90;;;;;;4994451;28;20184;-68
2022/12/12 01:51:19;;;;;;;5.55;4.93;;;17.00;51.60;;;;;;4992532;28;20177;-68
2022/12/12 01:53:49;;;;;;;6.20;5.60;;;17.00;51.50;;;;;;4993086;28;20191;-68
2022/12/12 01:56:18;;;;;;;6.25;5.65;;;16.90;51.40;;;;;;4993141;28;20679;-68
2022/12/12 01:58:48;;;;;;;6.10;5.47;;;17.00;51.70;;;;;;4993071;28;20239;-68
2022/12/12 02:01:15;;;;;;;5.97;5.38;;;17.00;51.70;;;;;;4978778;28;20209;-69
2022/12/12 02:03:43;;;;;;;5.80;5.20;;;17.00;51.70;;;;;;4992696;28;20185;-68
2022/12/12 02:06:15;;;;;;;5.30;4.80;;;16.90;51.60;;;;;;4992942;28;20189;-68
2022/12/12 02:08:43;;;;;;;5.78;5.15;;;16.90;51.50;;;;;;4992920;28;20260;-68
2022/12/12 02:11:09;;;;;;;6.05;5.45;;;16.90;51.60;;;;;;4992853;28;20193;-68
2022/12/12 02:13:35;;;;;;;5.70;5.15;;;16.90;51.50;;;;;;5009246;28;20219;-69
2022/12/12 02:16:33;;;;;;;6.13;5.55;;;16.90;51.50;;;;;;4992922;28;20264;-68
2022/12/12 02:19:57;;;;;;;5.78;5.18;;;16.90;51.40;;;;;;4993865;28;20231;-68
2022/12/12 02:22:53;;;;;;;5.90;4.95;;;16.90;51.20;;;;;;4917721;29;20222;-68
2022/12/12 02:25:46;;;;;;;6.03;5.43;;;16.90;51.50;;;;;;4917878;29;20191;-68
2022/12/12 02:28:50;;;;;;;5.22;4.70;;;16.90;51.40;;;;;;4992533;28;20189;-68
2022/12/12 02:31:29;;;;;;;5.63;4.93;;;16.90;51.00;;;;;;5008596;28;20208;-68
2022/12/12 02:34:32;;;;;;;5.38;4.88;;;16.90;51.20;;;;;;5008532;28;20189;-68
2022/12/12 02:37:19;;;;;;;5.43;4.90;;;16.90;51.30;;;;;;4992740;28;20560;-68
2022/12/12 02:40:31;;;;;;;5.18;4.68;;;16.90;51.30;;;;;;4992425;28;20204;-68
2022/12/12 02:44:01;;;;;;;5.22;4.78;;;16.90;51.00;;;;;;4992110;28;20220;-68
2022/12/12 02:46:40;;;;;;;5.28;4.78;;;16.90;51.30;;;;;;4898508;29;20243;-68
2022/12/12 02:49:34;;;;;;;5.45;4.82;;;16.90;51.10;;;;;;4898783;29;20274;-68
2022/12/12 02:52:01;;;;;;;5.57;5.03;;;16.90;51.10;;;;;;4972317;28;20216;-68
2022/12/12 02:54:27;;;;;;;5.45;4.85;;;16.90;50.80;;;;;;4991952;28;20687;-68
2022/12/12 02:56:57;;;;;;;5.65;5.15;;;16.90;50.80;;;;;;4976034;28;20228;-68
2022/12/12 02:59:33;;;;;;;5.30;4.75;;;16.90;51.10;;;;;;4975806;28;20201;-68
2022/12/12 03:02:23;;;;;;;4.90;4.40;;;16.90;50.80;;;;;;4998401;28;20226;-69
2022/12/12 03:08:43;;;;;;;5.47;4.88;;;16.90;51.10;;;;;;4992015;28;20188;-68
2022/12/12 03:11:26;;;;;;;5.40;4.90;;;16.90;50.70;;;;;;4990812;28;20200;-70
2022/12/12 03:13:58;;;;;;;5.10;4.55;;;16.90;51.00;;;;;;5001457;28;20188;-68
2022/12/12 03:16:27;;;;;;;5.47;4.75;;;16.90;51.00;;;;;;4988816;28;20272;-68
2022/12/12 03:19:03;;;;;;;5.55;5.05;;;16.90;51.10;;;;;;4991659;28;20188;-68
2022/12/12 03:21:50;;;;;;;5.03;4.55;;;16.80;51.10;;;;;;4991892;28;20216;-68
2022/12/12 03:24:45;;;;;;;5.07;4.57;;;16.90;51.00;;;;;;4991754;28;20655;-68
2022/12/12 03:27:30;;;;;;;4.97;4.47;;;16.80;50.50;;;;;;4975483;28;20212;-68
2022/12/12 03:30:07;;;;;;;5.07;4.63;;;16.80;50.60;;;;;;5008037;28;20208;-68
2022/12/12 03:32:57;;;;;;;5.18;4.68;;;16.80;50.70;;;;;;4991658;28;20299;-68
2022/12/12 03:35:37;;;;;;;4.28;3.88;;;16.80;50.80;;;;;;4975581;28;20188;-68
2022/12/12 03:38:30;;;;;;;4.80;4.40;;;16.80;50.80;;;;;;4992977;28;20173;-68
2022/12/12 03:41:01;;;;;;;5.15;4.65;;;16.80;50.60;;;;;;4991607;28;20209;-68
2022/12/12 03:43:45;;;;;;;5.18;4.68;;;16.80;50.50;;;;;;5013328;22;20239;-67
2022/12/12 03:46:28;;;;;;;5.60;4.55;;;16.80;50.30;;;;;;4975142;28;20300;-67
2022/12/12 03:49:06;;;;;;;4.60;4.15;;;16.90;50.90;;;;;;4991793;28;20193;-67
2022/12/12 03:51:41;;;;;;;4.78;4.38;;;16.80;50.70;;;;;;4991564;28;20652;-68
2022/12/12 03:54:50;;;;;;;4.28;3.88;;;16.90;50.80;;;;;;4991564;28;20284;-68
2022/12/12 03:57:34;;;;;;;4.85;4.35;;;16.80;50.60;;;;;;4916747;29;20235;-68
2022/12/12 04:00:10;;;;;;;4.93;4.43;;;16.80;50.20;;;;;;4980952;28;20220;-67
2022/12/12 04:03:10;;;;;;;5.53;4.68;;;16.80;50.30;;;;;;4992708;28;20247;-67
2022/12/12 04:08:36;;;;;;;3.78;3.47;;;16.80;50.70;;;;;;4991622;28;20185;-68
2022/12/12 04:14:42;;;;;;;4.70;4.30;;;16.80;50.10;;;;;;4991150;28;20185;-68
2022/12/12 04:17:14;;;;;;;5.15;4.30;;;16.80;50.50;;;;;;4994745;28;20275;-68
2022/12/12 04:23:14;;;;;;;4.32;3.92;;;16.80;50.60;;;;;;4994759;28;20235;-68
2022/12/12 04:29:38;;;;;;;4.75;4.30;;;16.80;50.20;;;;;;4994795;28;20241;-68
2022/12/12 04:32:21;;;;;;;4.45;4.05;;;16.80;50.50;;;;;;4988018;28;20291;-67
2022/12/12 04:35:02;;;;;;;4.40;4.00;;;16.80;50.10;;;;;;4978253;28;20596;-68
2022/12/12 04:37:34;;;;;;;4.50;4.10;;;16.80;50.40;;;;;;4994752;28;20279;-68
2022/12/12 04:40:06;;;;;;;4.88;4.18;;;16.80;50.50;;;;;;4994769;28;20263;-68
2022/12/12 04:42:41;;;;;;;4.30;3.90;;;16.80;50.40;;;;;;4994487;28;20281;-67
2022/12/12 04:45:17;;;;;;;3.92;3.63;;;16.80;50.60;;;;;;4978042;28;20271;-67
2022/12/12 04:47:48;;;;;;;4.90;4.40;;;16.80;50.40;;;;;;4994698;28;20187;-67
2022/12/12 04:50:17;;;;;;;3.95;3.65;;;16.80;50.40;;;;;;4994709;28;20181;-68
2022/12/12 04:52:49;;;;;;;4.22;3.80;;;16.80;50.40;;;;;;4978515;28;20196;-67
2022/12/12 04:55:33;;;;;;;4.00;3.60;;;16.80;50.30;;;;;;4977785;28;20220;-68
2022/12/12 04:58:01;;;;;;;4.25;3.85;;;16.80;50.20;;;;;;4988846;28;20196;-67
2022/12/12 05:00:39;;;;;;;3.95;3.65;;;16.80;50.10;;;;;;4993966;28;20211;-68
2022/12/12 05:03:18;;;;;;;4.22;3.75;;;16.80;49.90;;;;;;4995015;28;20284;-68
2022/12/12 05:05:58;;;;;;;4.15;3.75;;;16.70;50.10;;;;;;4994319;28;20219;-68
2022/12/12 05:08:34;;;;;;;4.15;3.78;;;16.80;50.30;;;;;;4994054;28;20547;-68
2022/12/12 05:11:04;;;;;;;4.40;3.97;;;16.70;50.30;;;;;;4993929;28;20247;-68
2022/12/12 05:13:34;;;;;;;4.50;4.10;;;16.80;50.40;;;;;;4977378;28;20706;-67
2022/12/12 05:16:34;;;;;;;4.47;4.03;;;16.80;50.30;;;;;;4993732;28;20177;-67
2022/12/12 05:19:00;;;;;;;5.10;4.10;;;16.80;50.20;;;;;;4992924;28;20212;-68
2022/12/12 05:21:27;;;;;;;5.13;4.63;;;16.70;49.70;;;;;;4993660;28;20236;-67
2022/12/12 05:23:52;;;;;;;4.97;4.25;;;16.70;49.60;;;;;;4977599;28;20188;-67
2022/12/12 05:26:29;;;;;;;4.32;3.85;;;16.70;49.70;;;;;;4993773;28;20185;-67
2022/12/12 05:28:59;;;;;;;4.82;3.90;;;16.70;49.80;;;;;;4993301;28;20188;-68
2022/12/12 05:31:25;;;;;;;4.78;4.28;;;16.70;50.10;;;;;;4993166;28;20196;-67
2022/12/12 05:33:50;;;;;;;6.07;4.80;;;16.70;50.10;;;;;;4976967;28;20548;-68
2022/12/12 05:36:17;;;;;;;5.88;4.55;;;16.80;50.10;;;;;;4977311;28;20189;-68
2022/12/12 05:38:43;;;;;;;5.25;4.75;;;16.70;50.00;;;;;;4977118;28;20196;-67
2022/12/12 05:41:10;;;;;;;6.07;4.50;;;16.80;50.20;;;;;;4977277;28;20227;-68
2022/12/12 05:43:36;;;;;;;5.22;4.50;;;16.80;50.20;;;;;;4993145;28;20271;-68
2022/12/12 05:46:03;;;;;;;6.75;5.15;;;16.80;50.10;;;;;;4994210;28;20189;-68
2022/12/12 05:48:29;;;;;;;5.10;4.60;;;16.80;50.10;;;;;;4993042;28;20183;-68
2022/12/12 05:50:54;;;;;;;6.03;4.63;;;16.70;50.10;;;;;;4993093;28;20192;-68
2022/12/12 05:53:21;;;;;;;5.75;5.10;;;16.80;50.00;;;;;;4992919;28;20219;-68
2022/12/12 05:55:51;;;;;;;5.75;5.18;;;16.70;49.90;;;;;;4993075;28;20220;-68
2022/12/12 05:58:18;;;;;;;6.68;5.03;;;16.70;49.80;;;;;;4992923;28;20195;-68
2022/12/12 06:00:47;;;;;;;6.38;5.28;;;16.70;50.00;;;;;;4993008;28;20248;-67
2022/12/12 06:03:13;;;;;;;7.80;5.75;;;16.70;49.90;;;;;;4992933;28;20259;-66
2022/12/12 06:05:39;;;;;;;6.00;5.05;;;16.70;49.80;;;;;;4993165;28;20176;-67
2022/12/12 06:08:05;;;;;;;6.70;5.65;;;16.70;49.80;;;;;;4992790;28;20181;-68
2022/12/12 06:10:30;;;;;;;8.25;6.05;;;16.70;49.50;;;;;;4992723;28;20188;-69
2022/12/12 06:12:56;;;;;;;9.07;5.90;;;16.60;49.40;;;;;;4976878;28;20213;-69
2022/12/12 06:15:22;;;;;;;5.60;4.95;;;16.70;49.40;;;;;;4992471;28;20189;-69
2022/12/12 06:17:50;;;;;;;6.80;5.60;;;16.70;50.00;;;;;;4994068;28;20197;-68
2022/12/12 06:20:17;;;;;;;6.22;5.38;;;16.70;49.90;;;;;;4992213;28;20221;-70
2022/12/12 06:22:43;;;;;;;7.93;6.20;;;16.70;49.80;;;;;;4975724;28;20311;-69
2022/12/12 06:25:09;;;;;;;7.40;5.75;;;16.80;49.90;;;;;;4975741;28;20275;-69
2022/12/12 06:27:35;;;;;;;7.10;6.00;;;16.70;49.90;;;;;;4992165;28;20539;-69
2022/12/12 06:30:03;;;;;;;7.35;6.30;;;16.70;49.90;;;;;;4983922;28;20215;-69
2022/12/12 06:32:29;;;;;;;7.65;6.60;;;16.70;50.00;;;;;;4991863;28;20307;-69
2022/12/12 06:34:55;;;;;;;7.90;6.53;;;16.70;50.00;;;;;;4992837;28;20181;-69
2022/12/12 06:37:21;;;;;;;8.68;7.05;;;16.70;50.00;;;;;;4991309;28;20188;-69
2022/12/12 06:39:48;;;;;;;9.18;7.30;;;16.70;50.00;;;;;;4991979;28;20255;-70
2022/12/12 06:42:14;;;;;;;9.90;8.05;;;16.70;49.90;;;;;;4975672;28;20217;-69
2022/12/12 06:44:40;;;;;;;8.98;7.45;;;16.80;50.00;;;;;;4975234;28;20196;-69
2022/12/12 06:47:05;;;;;;;8.68;7.22;;;16.70;49.80;;;;;;4975693;28;20287;-70
2022/12/12 06:49:31;;;;;;;9.23;7.65;;;16.70;49.80;;;;;;4975643;28;20200;-69
2022/12/12 06:51:57;;;;;;;8.82;7.25;;;16.70;49.80;;;;;;4991477;28;20223;-70
2022/12/12 06:54:23;;;;;;;10.57;8.20;;;16.70;49.80;;;;;;4991140;28;20670;-70
2022/12/12 06:56:48;;;;;;;9.38;7.70;;;16.70;49.80;;;;;;5007775;28;20192;-69
2022/12/12 06:59:15;;;;;;;9.20;7.72;;;16.70;49.70;;;;;;4991180;28;20192;-70
2022/12/12 07:01:41;;;;;;;9.35;8.10;;;16.70;49.70;;;;;;4975176;28;20195;-70
2022/12/12 07:04:06;;;;;;;8.70;7.30;;;16.70;49.70;;;;;;4991238;28;20193;-69
2022/12/12 07:06:32;;;;;;;9.38;8.05;;;16.70;49.60;;;;;;4991270;28;20187;-69
2022/12/12 07:08:59;;;;;;;9.40;7.80;;;16.70;49.50;;;;;;4975394;28;20181;-69
2022/12/12 07:11:26;;;;;;;9.98;7.57;;;16.70;49.50;;;;;;4991056;28;20188;-69
2022/12/12 07:13:55;;;;;;;9.90;7.70;;;16.70;49.60;;;;;;4974060;28;20251;-69
2022/12/12 07:16:21;;;;;;;10.07;8.55;;;16.70;49.70;;;;;;4991518;28;20188;-69
2022/12/12 07:18:48;;;;;;;10.30;8.43;;;16.70;49.70;;;;;;4991113;28;20265;-70
2022/12/12 07:21:17;;;;;;;9.63;8.07;;;16.70;49.70;;;;;;4959706;28;20225;-69
2022/12/12 07:23:43;;;;;;;10.10;8.05;;;16.70;49.70;;;;;;4972910;28;20197;-69
2022/12/12 07:26:15;;;;;;;8.70;7.57;;;16.70;49.80;;;;;;4971908;28;20200;-69
2022/12/12 07:28:41;;;;;;;10.27;8.30;;;16.70;49.80;;;;;;4984703;28;20271;-69
2022/12/12 07:31:10;;;;;;;9.07;7.65;;;16.70;49.80;;;;;;4975138;28;20280;-70
2022/12/12 07:33:37;;;;;;;8.80;7.82;;;16.70;49.80;;;;;;4991083;28;20213;-69
2022/12/12 07:36:04;;;;;;;9.10;7.63;;;16.70;49.80;;;;;;4975070;28;20220;-69
2022/12/12 07:38:31;;;;;;;9.65;8.18;;;16.70;49.80;;;;;;4991317;28;20284;-69
2022/12/12 07:41:07;;;;;;;9.95;8.35;;;16.70;49.70;;;;;;4974783;28;20769;-69
2022/12/12 07:43:39;;;;;;;9.23;7.70;;;16.70;49.70;;;;;;4974559;28;20212;-69
2022/12/12 07:46:07;;;;;;;9.85;7.85;;;16.70;49.80;;;;;;4974750;28;20189;-69
2022/12/12 07:48:33;;;;;;;9.27;7.55;;;16.70;49.70;;;;;;4991377;28;20185;-70
2022/12/12 07:51:00;;;;;;;10.50;8.35;;;16.70;49.60;;;;;;4996289;28;20192;-70
2022/12/12 07:53:26;;;;;;;8.88;7.88;;;16.70;49.70;;;;;;4994615;28;20220;-69
2022/12/12 07:55:52;;;;;;;9.20;7.75;;;16.70;49.50;;;;;;4967711;28;20221;-69
2022/12/12 07:58:18;;;;;;;10.13;8.48;;;16.70;49.60;;;;;;4968975;28;20228;-70
2022/12/12 08:00:44;;;;;;;9.10;7.80;;;16.70;49.60;;;;;;4994784;28;20244;-69
2022/12/12 08:03:10;;;;;;;9.10;8.20;;;16.70;49.60;;;;;;4978593;28;20299;-69
2022/12/12 08:05:44;;;;;;;10.50;8.68;;;16.70;49.70;;;;;;4994577;28;20189;-69
2022/12/12 08:08:10;;;;;;;9.48;8.20;;;16.70;49.70;;;;;;4978399;28;20184;-69
2022/12/12 08:10:40;;;;;;;9.38;8.25;;;16.70;49.70;;;;;;4978383;28;20203;-69
2022/12/12 08:13:06;;;;;;;10.10;8.73;;;16.70;49.70;;;;;;4978205;28;20215;-70
2022/12/12 08:15:32;;;;;;;10.18;8.80;;;16.70;49.70;;;;;;4978072;28;20235;-69
2022/12/12 08:17:58;;;;;;;8.93;8.10;;;16.70;49.70;;;;;;4994448;28;20189;-70
2022/12/12 08:20:24;;;;;;;10.77;9.05;;;16.70;49.70;;;;;;4994387;28;20271;-69
2022/12/12 08:22:49;;;;;;;10.27;9.27;;;16.70;49.70;;;;;;4995508;28;20205;-69
2022/12/12 08:25:15;;;;;;;9.80;8.38;;;16.70;49.70;;;;;;4994329;28;20184;-69
2022/12/12 08:27:41;;;;;;;9.80;8.60;;;16.80;49.80;;;;;;4977810;28;20219;-69
2022/12/12 08:30:08;;;;;;;10.18;8.85;;;16.70;49.60;;;;;;4995327;28;20273;-69
2022/12/12 08:32:35;;;;;;;9.85;8.63;;;16.70;49.70;;;;;;4994295;28;20209;-69
2022/12/12 08:35:01;;;;;;;10.18;8.55;;;16.70;49.70;;;;;;4995125;28;20192;-69
2022/12/12 08:37:27;;;;;;;10.75;9.65;;;16.70;49.70;;;;;;4995266;28;20196;-69
2022/12/12 08:39:54;;;;;;;11.30;8.95;;;16.70;49.70;;;;;;4994028;28;20243;-69
2022/12/12 08:42:21;;;;;;;10.57;8.98;;;16.70;49.70;;;;;;4994095;28;20204;-69
2022/12/12 08:44:48;;;;;;;10.43;8.70;;;16.70;49.70;;;;;;4977420;28;20677;-69
2022/12/12 08:47:14;;;;;;;9.88;8.88;;;16.80;49.90;;;;;;4993970;28;20181;-69
2022/12/12 08:49:39;;;;;;;9.57;8.45;;;16.80;49.80;;;;;;4995416;28;20191;-69
2022/12/12 08:52:08;;;;;;;10.13;8.70;;;16.80;49.90;;;;;;4977793;28;20263;-70
2022/12/12 08:54:35;;;;;;;10.18;9.15;;;16.80;49.80;;;;;;4994782;28;20192;-69
2022/12/12 08:57:02;;;;;;;9.52;8.63;;;16.80;49.90;;;;;;4993821;28;20181;-70
2022/12/12 08:59:28;;;;;;;9.73;8.73;;;16.80;49.80;;;;;;4993407;28;20594;-69
2022/12/12 09:01:53;;;;;;;9.27;8.38;;;16.80;49.90;;;;;;4994149;28;20208;-69
2022/12/12 09:04:19;;;;;;;9.88;8.73;;;16.80;49.90;;;;;;4977218;28;20181;-69
2022/12/12 09:06:45;;;;;;;9.90;8.75;;;16.80;49.80;;;;;;4993743;28;20329;-69
2022/12/12 09:09:11;;;;;;;10.88;9.10;;;16.80;49.90;;;;;;4994666;28;20196;-69
2022/12/12 09:11:36;;;;;;;11.07;9.88;;;16.80;49.90;;;;;;4977399;28;20192;-69
2022/12/12 09:14:03;;;;;;;10.90;9.73;;;16.80;49.90;;;;;;4977072;28;20582;-69
2022/12/12 09:16:28;;;;;;;10.77;9.68;;;16.80;49.90;;;;;;4994699;28;20203;-69
2022/12/12 09:18:55;;;;;;;11.10;9.88;;;16.80;49.90;;;;;;4993432;28;20181;-69
2022/12/12 09:21:21;;;;;;;11.38;10.02;;;16.80;50.00;;;;;;4985434;28;20304;-69
2022/12/12 09:23:48;;;;;;;10.75;9.65;;;16.80;49.90;;;;;;4957364;28;20274;-69
2022/12/12 09:26:14;;;;;;;11.30;10.10;;;16.80;49.90;;;;;;4957588;28;20186;-69
2022/12/12 09:28:39;;;;;;;10.85;9.68;;;16.80;49.90;;;;;;4973190;28;20193;-69
2022/12/12 09:31:07;;;;;;;11.18;10.02;;;16.90;50.00;;;;;;4976980;28;20185;-69
2022/12/12 09:33:34;;;;;;;10.60;9.50;;;16.90;49.90;;;;;;4976815;28;20204;-68
2022/12/12 09:36:04;;;;;;;11.00;9.90;;;16.90;50.00;;;;;;5009300;28;20188;-69
2022/12/12 09:38:31;;;;;;;12.18;9.93;;;16.80;49.90;;;;;;4992986;28;20196;-69
2022/12/12 09:41:17;;;;;;;11.02;9.93;;;16.80;50.00;;;;;;4993086;28;20226;-69
2022/12/12 09:44:07;;;;;;;11.95;10.73;;;16.90;50.10;;;;;;4994625;28;20216;-69
2022/12/12 09:46:59;;;;;;;11.45;10.25;;;16.90;50.00;;;;;;4992921;28;20204;-69
2022/12/12 09:49:51;;;;;;;11.27;9.88;;;16.90;50.00;;;;;;4992949;28;20232;-69
2022/12/12 09:52:31;;;;;;;11.68;9.95;;;16.90;50.10;;;;;;4992844;28;20331;-69
2022/12/12 09:55:20;;;;;;;11.68;10.48;;;16.90;50.10;;;;;;4976143;28;20254;-69
2022/12/12 09:58:19;;;;;;;11.88;10.25;;;16.90;50.10;;;;;;4992624;28;20231;-69
2022/12/12 10:01:20;;;;;;;10.90;9.80;;;16.90;50.10;;;;;;4986849;28;20224;-70
2022/12/12 10:04:16;;;;;;;10.82;9.73;;;16.90;50.10;;;;;;4969788;28;20217;-69
2022/12/12 10:07:00;;;;;;;10.65;9.65;;;16.90;50.10;;;;;;4992339;28;20180;-69
2022/12/12 10:09:46;;;;;;;11.82;10.38;;;16.90;50.10;;;;;;4992488;28;20184;-69
2022/12/12 10:12:16;;;;;;;11.27;10.05;;;16.90;50.20;;;;;;4991715;28;20205;-69
2022/12/12 10:14:49;;;;;;;11.25;10.00;;;16.90;50.20;;;;;;4992131;28;20184;-69
2022/12/12 10:17:39;;;;;;;11.20;10.15;;;16.90;50.20;;;;;;4992362;28;20217;-69
2022/12/12 10:20:30;;;;;;;10.75;9.65;;;16.90;50.20;;;;;;4975806;28;20263;-69
2022/12/12 10:23:12;;;;;;;10.75;9.65;;;16.90;50.20;;;;;;4992396;28;20208;-69
2022/12/12 10:26:09;;;;;;;11.52;9.85;;;16.90;50.20;;;;;;4976416;28;20180;-68
2022/12/12 10:28:35;;;;;;;10.38;9.38;;;16.90;50.20;;;;;;4992528;28;20193;-69
2022/12/12 10:31:37;;;;;;;11.02;9.90;;;16.90;50.60;;;;;;4976087;28;20181;-69
2022/12/12 10:34:30;;;;;;;10.65;9.50;;;16.90;50.30;;;;;;4992210;28;20181;-69
2022/12/12 10:37:17;;;;;;;10.77;9.68;;;17.00;50.90;;;;;;4992585;28;20188;-69
2022/12/12 10:39:45;;;;;;;10.27;9.05;;;17.00;50.80;;;;;;4976087;28;20235;-69
2022/12/12 10:42:30;;;;;;;10.20;8.90;;;17.00;50.90;;;;;;4976081;28;20578;-69
2022/12/12 10:45:23;;;;;;;9.65;8.70;;;17.00;50.90;;;;;;4975752;28;20177;-69
2022/12/12 10:47:49;;;;;;;10.27;8.88;;;17.00;50.80;;;;;;4992573;28;20180;-69
2022/12/12 10:50:35;;;;;;;9.82;8.63;;;17.00;50.90;;;;;;4975861;28;20192;-70
2022/12/12 10:53:07;;;;;;;9.52;8.23;;;17.00;50.80;;;;;;4976131;28;20212;-69
2022/12/12 10:55:57;;;;;;;9.77;8.77;;;17.00;50.80;;;;;;4992103;28;20651;-69
2022/12/12 10:58:39;;;;;;;9.30;8.40;;;17.00;50.80;;;;;;4991431;28;20197;-69
2022/12/12 11:01:34;;;;;;;9.20;8.18;;;17.00;50.80;;;;;;4968536;28;20210;-69
2022/12/12 11:04:02;;;;;;;9.05;8.15;;;17.00;50.80;;;;;;4974620;28;20193;-69
2022/12/12 11:06:35;;;;;;;9.18;8.27;;;17.00;50.80;;;;;;4975772;28;20192;-70
2022/12/12 11:09:22;;;;;;;8.73;7.93;;;17.00;51.20;;;;;;4993392;28;20180;-70
2022/12/12 11:12:07;;;;;;;8.75;7.85;;;17.00;50.80;;;;;;4992821;28;20212;-69
2022/12/12 11:14:55;;;;;;;8.85;7.65;;;17.00;50.80;;;;;;4992706;28;20177;-69
2022/12/12 11:17:30;;;;;;;8.00;7.22;;;17.00;50.80;;;;;;4975575;28;20279;-69
2022/12/12 11:19:59;;;;;;;8.60;7.53;;;17.00;50.80;;;;;;4991752;28;20283;-69
2022/12/12 11:22:29;;;;;;;7.45;6.72;;;17.00;50.80;;;;;;4991883;28;20205;-69
2022/12/12 11:24:55;;;;;;;8.02;7.22;;;17.00;50.80;;;;;;4996481;28;20191;-69
2022/12/12 11:27:30;;;;;;;7.82;7.03;;;17.00;50.80;;;;;;4998317;28;20185;-69
2022/12/12 11:30:04;;;;;;;8.05;7.28;;;17.00;50.80;;;;;;4998118;28;20631;-69
2022/12/12 11:32:39;;;;;;;7.38;6.68;;;17.00;50.80;;;;;;4998322;28;20223;-69
2022/12/12 11:35:30;;;;;;;7.28;6.57;;;17.00;50.80;;;;;;4993118;28;20184;-69
2022/12/12 11:38:16;;;;;;;7.18;6.47;;;17.00;50.80;;;;;;4999368;28;20177;-69
2022/12/12 11:40:43;;;;;;;6.93;6.22;;;17.00;50.80;;;;;;4998011;28;20205;-69
2022/12/12 11:43:22;;;;;;;7.07;6.40;;;17.00;50.80;;;;;;4998076;28;20215;-69
2022/12/12 11:46:03;;;;;;;6.57;5.97;;;17.00;50.80;;;;;;4981586;28;20215;-69
2022/12/12 11:48:38;;;;;;;6.78;6.07;;;17.00;50.80;;;;;;5014544;28;20172;-69
2022/12/12 11:51:05;;;;;;;6.28;5.63;;;17.00;50.80;;;;;;4998296;28;20195;-69
2022/12/12 11:53:51;;;;;;;6.10;5.60;;;17.00;50.80;;;;;;4981894;28;20217;-69
2022/12/12 11:56:51;;;;;;;6.22;5.63;;;17.00;50.80;;;;;;4997873;28;20640;-69
2022/12/12 11:59:58;;;;;;;6.72;5.95;;;17.00;50.80;;;;;;4997917;28;20187;-69
2022/12/12 12:03:17;;;;;;;5.93;5.32;;;17.00;50.80;;;;;;4980388;28;20204;-69
2022/12/12 12:05:48;;;;;;;6.00;5.47;;;17.00;50.80;;;;;;4991289;28;20188;-69
2022/12/12 12:08:43;;;;;;;5.18;4.70;;;17.10;51.00;;;;;;4964458;28;20579;-69
2022/12/12 12:11:26;;;;;;;6.13;5.53;;;17.10;50.90;;;;;;4978427;28;20178;-69
2022/12/12 12:14:19;;;;;;;5.40;4.90;;;17.10;50.90;;;;;;4978197;28;20252;-68
2022/12/12 12:17:04;;;;;;;5.93;5.32;;;17.10;51.00;;;;;;4979699;28;20193;-69
2022/12/12 12:20:14;;;;;;;5.03;4.53;;;17.10;50.90;;;;;;4969286;28;20189;-69
2022/12/12 12:23:14;;;;;;;5.90;5.07;;;17.10;51.00;;;;;;4997670;28;20279;-69
2022/12/12 12:25:50;;;;;;;6.05;4.80;;;17.10;51.00;;;;;;5010676;28;20174;-69
2022/12/12 12:29:02;;;;;;;5.70;4.85;;;17.10;51.00;;;;;;4997987;28;20169;-69
2022/12/12 12:32:11;;;;;;;5.30;4.80;;;17.10;51.00;;;;;;4993355;28;20667;-69
2022/12/12 12:34:56;;;;;;;5.47;4.78;;;17.10;51.10;;;;;;4981329;28;20192;-69
2022/12/12 12:37:53;;;;;;;4.63;4.22;;;17.10;51.20;;;;;;5010704;28;20184;-69
2022/12/12 12:41:02;;;;;;;4.60;4.20;;;17.10;51.10;;;;;;4969489;28;20231;-69
2022/12/12 12:44:03;;;;;;;4.88;4.38;;;17.10;51.20;;;;;;4983787;28;20267;-69
2022/12/12 12:46:50;;;;;;;5.28;4.78;;;17.10;51.20;;;;;;4973732;28;20189;-69
2022/12/12 12:49:37;;;;;;;4.22;3.92;;;17.10;51.20;;;;;;4977544;28;20592;-69
2022/12/12 12:52:13;;;;;;;4.50;4.10;;;17.20;51.90;;;;;;4974408;28;20212;-69
2022/12/12 12:54:42;;;;;;;4.85;4.45;;;17.20;51.40;;;;;;4974129;28;20724;-70
2022/12/12 12:57:28;;;;;;;3.97;3.67;;;17.20;51.40;;;;;;4976741;28;20204;-69
2022/12/12 13:00:03;;;;;;;5.10;4.43;;;17.10;51.30;;;;;;4993649;28;20211;-69
2022/12/12 13:03:12;;;;;;;4.50;4.05;;;17.20;51.40;;;;;;4980064;28;20304;-70
2022/12/12 13:05:58;;;;;;;4.28;3.88;;;17.10;51.30;;;;;;4953536;28;20205;-69
2022/12/12 13:08:35;;;;;;;4.10;3.70;;;17.20;51.40;;;;;;4974572;28;20166;-69
2022/12/12 13:11:10;;;;;;;3.85;3.55;;;17.20;51.40;;;;;;4975088;28;20217;-69
2022/12/12 13:13:42;;;;;;;4.13;3.72;;;17.20;51.40;;;;;;4994091;28;20226;-69
2022/12/12 13:16:15;;;;;;;3.97;3.67;;;17.20;51.50;;;;;;4993727;28;20272;-69
2022/12/12 13:18:47;;;;;;;3.90;3.50;;;17.20;51.60;;;;;;4994310;28;20172;-69
2022/12/12 13:21:26;;;;;;;4.10;3.70;;;17.20;51.50;;;;;;4993728;28;20216;-69
2022/12/12 13:24:08;;;;;;;3.50;3.20;;;17.20;51.40;;;;;;4993608;28;20173;-68
2022/12/12 13:27:04;;;;;;;4.07;3.70;;;17.20;51.40;;;;;;4994841;28;20177;-68
2022/12/12 13:30:00;;;;;;;4.40;3.70;;;17.20;51.40;;;;;;4992838;28;20185;-68
2022/12/12 13:32:28;;;;;;;3.60;3.30;;;17.20;51.40;;;;;;4980281;28;20300;-69
2022/12/12 13:35:02;;;;;;;3.72;3.33;;;17.20;51.40;;;;;;4976230;28;20204;-69
2022/12/12 13:37:34;;;;;;;4.10;3.70;;;17.20;51.40;;;;;;4973855;28;20185;-69
2022/12/12 13:40:05;;;;;;;3.58;3.28;;;17.20;51.40;;;;;;4977613;28;20231;-69
2022/12/12 13:42:54;;;;;;;3.40;3.10;;;17.20;51.50;;;;;;4977017;28;20223;-69